Melton Constable, United Kingdom
Current Conditions -  °F | °C
As of 6:50 AM on Friday 19 Dec 2014 (Local Time) from EGSH Reporting Station
Broken Clouds Broken Clouds  
Wind Chill: 42°   Ceiling: 4300
Heat Index: 48°   Visibility: 6mi
Dew Point: 43°   Wind: 17mph
Humidity: 82%   Direction: 290°WNW
Pressure: 29.74"   Gusts: NA
Location:  52.87°N, 1.08°E
Report Text: EGSH 190650Z 29015KT 9999 SCT036 BKN043 09/06 Q1007 NOSIG
Loading
Personal Weather Stations






























Interactive Weather Map New forecast layout! Learn more

10-Day Weather Forecast

Advertisements
Track Severe Weather on mobile